createdAt,value
2023-02-13T00:01:00.077Z,103783.56
2023-02-13T00:03:26.798Z,103779.06
2023-02-13T00:05:53.422Z,103722.25
2023-02-13T00:08:19.965Z,103753.19
2023-02-13T00:10:48.297Z,103736.38
2023-02-13T00:13:17.393Z,103775.47
2023-02-13T00:15:46.059Z,103750.59
2023-02-13T00:18:12.647Z,103773.69
2023-02-13T00:20:39.244Z,103754.06
2023-02-13T00:23:08.197Z,103748.69
2023-02-13T00:25:34.751Z,103761.94
2023-02-13T00:28:01.450Z,103759.34
2023-02-13T00:30:28.105Z,103752.03
2023-02-13T00:32:54.676Z,103727.25
2023-02-13T00:35:21.245Z,103758.28
2023-02-13T00:37:47.854Z,103732.56
2023-02-13T00:40:17.130Z,103718.28
2023-02-13T00:42:46.111Z,103738.56
2023-02-13T00:45:12.695Z,103760.25
2023-02-13T00:47:41.714Z,103762.06
2023-02-13T00:50:08.583Z,103743.25
2023-02-13T00:52:35.217Z,103749.38
2023-02-13T00:55:03.842Z,103756.59
2023-02-13T00:57:32.779Z,103750.31
2023-02-13T01:00:01.726Z,103744.88
2023-02-13T01:02:28.310Z,103751.91
2023-02-13T01:04:54.881Z,103735.22
2023-02-13T01:07:21.450Z,103743.13
2023-02-13T01:09:50.408Z,103754.69
2023-02-13T01:12:16.975Z,103755.63
2023-02-13T01:14:43.512Z,103757.53
2023-02-13T01:17:10.072Z,103763.81
2023-02-13T01:19:36.665Z,103758.34
2023-02-13T01:22:03.209Z,103691.94
2023-02-13T01:24:33.275Z,103723.72
2023-02-13T01:27:02.499Z,103720.19
2023-02-13T01:29:29.795Z,103735.41
2023-02-13T01:31:58.817Z,103707.41
2023-02-13T01:34:25.575Z,103728.28
2023-02-13T01:36:52.165Z,103740.66
2023-02-13T01:39:18.830Z,103738.75
2023-02-13T01:41:45.441Z,103741.53
2023-02-13T01:44:53.638Z,103740.66
2023-02-13T01:47:29.302Z,103745.28
2023-02-13T01:50:08.331Z,103734.53
2023-02-13T01:52:43.983Z,103739.97
2023-02-13T01:55:12.009Z,103712.47
2023-02-13T01:57:42.365Z,103714.25
2023-02-13T02:00:12.154Z,103732.88
2023-02-13T02:02:46.771Z,103737.38
2023-02-13T02:05:17.095Z,103711.78
2023-02-13T02:07:47.002Z,103717.03
2023-02-13T02:10:17.318Z,103729.59
2023-02-13T02:12:51.843Z,103697.72
2023-02-13T02:15:21.439Z,103676.59
2023-02-13T02:17:48.025Z,103732.25
2023-02-13T02:20:57.358Z,103725.94
2023-02-13T02:23:52.746Z,103709.06
2023-02-13T02:26:34.570Z,103726.88
2023-02-13T02:29:38.595Z,103722.47
2023-02-13T02:32:32.239Z,103703.88
2023-02-13T02:35:33.500Z,103667.63
2023-02-13T02:38:06.027Z,103723.41
2023-02-13T02:40:45.227Z,103695.88
2023-02-13T02:43:32.169Z,103716.31
2023-02-13T02:46:31.940Z,103701.44
2023-02-13T02:49:34.861Z,103717.34
2023-02-13T02:52:07.884Z,103712.78
2023-02-13T02:55:02.906Z,103706.47
2023-02-13T02:57:54.191Z,103693.22
2023-02-13T03:00:42.773Z,103717.28
2023-02-13T03:03:42.126Z,103716.41
2023-02-13T03:06:15.486Z,103696.06
2023-02-13T03:09:04.345Z,103729.03
2023-02-13T03:11:50.122Z,103718.97
2023-02-13T03:14:21.135Z,103649.22
2023-02-13T03:17:07.891Z,103707.84
2023-02-13T03:20:20.197Z,103700.44
2023-02-13T03:23:14.036Z,103654.28
2023-02-13T03:26:18.282Z,103711.78
2023-02-13T03:29:10.867Z,103712.84
2023-02-13T03:32:01.659Z,103715.59
2023-02-13T03:34:55.048Z,103697.91
2023-02-13T03:37:49.339Z,103712.13
2023-02-13T03:40:37.009Z,103698.28
2023-02-13T03:43:06.741Z,103635.44
2023-02-13T03:45:54.057Z,103722.50
2023-02-13T03:48:44.920Z,103712.88
2023-02-13T03:51:18.943Z,103715.97
2023-02-13T03:53:55.297Z,103718.84
2023-02-13T03:56:41.801Z,103724.44
2023-02-13T03:59:16.467Z,103717.72
2023-02-13T04:02:22.063Z,103723.38
2023-02-13T04:04:54.454Z,103721.84
2023-02-13T04:07:33.305Z,103714.00
2023-02-13T04:10:13.274Z,103717.81
2023-02-13T04:12:42.769Z,103728.00
2023-02-13T04:15:17.389Z,103723.69
2023-02-13T04:17:50.244Z,103720.28
2023-02-13T04:20:19.410Z,103686.72
2023-02-13T04:22:48.177Z,103717.06
2023-02-13T04:25:18.766Z,103700.44
2023-02-13T04:27:45.540Z,103685.28
2023-02-13T04:30:12.781Z,103721.16
2023-02-13T04:32:39.382Z,103725.00
2023-02-13T04:35:06.454Z,103727.00
2023-02-13T04:37:33.014Z,103719.06
2023-02-13T04:39:59.667Z,103716.41
2023-02-13T04:42:28.678Z,103710.34
2023-02-13T04:44:57.552Z,103695.50
2023-02-13T04:47:24.152Z,103709.78
2023-02-13T04:49:53.692Z,103705.63
2023-02-13T04:52:22.647Z,103689.69
2023-02-13T04:54:51.681Z,103682.50
2023-02-13T04:57:18.334Z,103637.56
2023-02-13T04:59:44.949Z,103683.75
2023-02-13T05:02:11.513Z,103699.66
2023-02-13T05:04:38.159Z,103689.09
2023-02-13T05:07:04.723Z,103694.66
2023-02-13T05:09:31.320Z,103705.44
2023-02-13T05:12:00.131Z,103694.78
2023-02-13T05:14:26.802Z,103686.84
2023-02-13T05:16:55.617Z,103706.53
2023-02-13T05:19:24.375Z,103616.22
2023-02-13T05:22:09.575Z,103699.63
2023-02-13T05:24:36.133Z,103676.66
2023-02-13T05:27:02.752Z,103687.31
2023-02-13T05:29:29.332Z,103691.81
2023-02-13T05:31:58.386Z,103690.06
2023-02-13T05:34:26.641Z,103679.66
2023-02-13T05:36:53.749Z,103680.75
2023-02-13T05:39:20.768Z,103686.81
2023-02-13T05:41:48.391Z,103697.63
2023-02-13T05:44:15.614Z,103688.81
2023-02-13T05:46:43.232Z,103695.25
2023-02-13T05:49:14.051Z,103609.38
2023-02-13T05:51:43.353Z,103703.59
2023-02-13T05:54:09.924Z,103699.19
2023-02-13T05:56:36.772Z,103713.69
2023-02-13T05:59:04.045Z,103616.97
2023-02-13T06:01:33.039Z,103687.06
2023-02-13T06:04:03.886Z,103698.59
2023-02-13T06:06:32.921Z,103696.94
2023-02-13T06:09:01.699Z,103674.94
2023-02-13T06:11:30.597Z,103698.91
2023-02-13T06:13:59.394Z,103695.38
2023-02-13T06:16:30.436Z,103700.00
2023-02-13T06:18:59.525Z,103708.16
2023-02-13T06:21:26.575Z,103697.50
2023-02-13T06:23:53.197Z,103702.91
2023-02-13T06:26:19.916Z,103684.34
2023-02-13T06:28:46.543Z,103703.00
2023-02-13T06:31:13.303Z,103682.63
2023-02-13T06:33:40.059Z,103702.28
2023-02-13T06:36:07.127Z,103681.88
2023-02-13T06:38:33.723Z,103700.66
2023-02-13T06:41:07.261Z,103686.63
2023-02-13T06:43:36.161Z,103685.03
2023-02-13T06:46:06.708Z,103660.22
2023-02-13T06:48:35.835Z,103568.88
2023-02-13T06:51:02.473Z,103701.22
2023-02-13T06:53:29.820Z,103722.56
2023-02-13T06:56:03.944Z,103680.88
2023-02-13T06:58:30.515Z,103709.31
2023-02-13T07:00:57.368Z,103692.50
2023-02-13T07:03:24.227Z,103721.91
2023-02-13T07:05:52.135Z,103714.72
2023-02-13T07:08:19.201Z,103714.75
2023-02-13T07:10:45.826Z,103719.34
2023-02-13T07:13:12.427Z,103715.75
2023-02-13T07:15:39.053Z,103699.72
2023-02-13T07:18:06.664Z,103721.25
2023-02-13T07:20:34.010Z,103730.22
2023-02-13T07:23:04.332Z,103727.56
2023-02-13T07:25:31.687Z,103731.06
2023-02-13T07:28:05.096Z,103725.72
2023-02-13T07:30:33.065Z,103631.69
2023-02-13T07:33:04.017Z,103726.38
2023-02-13T07:35:31.507Z,103732.56
2023-02-13T07:37:59.322Z,103721.81
2023-02-13T07:40:28.355Z,103719.06
2023-02-13T07:42:56.149Z,103726.84
2023-02-13T07:45:23.008Z,103735.66
2023-02-13T07:47:49.565Z,103710.69
2023-02-13T07:50:16.146Z,103723.13
2023-02-13T07:52:42.755Z,103717.66
2023-02-13T07:55:11.576Z,103734.41
2023-02-13T07:57:38.301Z,103721.03
2023-02-13T08:00:07.756Z,103743.25
2023-02-13T08:02:39.106Z,103737.88
2023-02-13T08:05:08.550Z,103744.78
2023-02-13T08:07:35.198Z,103743.81
2023-02-13T08:10:20.399Z,103656.75
2023-02-13T08:12:47.373Z,103747.16
2023-02-13T08:15:17.990Z,103759.59
2023-02-13T08:17:44.641Z,103755.97
2023-02-13T08:20:12.011Z,103753.19
2023-02-13T08:22:39.583Z,103766.38
2023-02-13T08:25:09.726Z,103744.16
2023-02-13T08:27:36.352Z,103764.28
2023-02-13T08:30:06.717Z,103762.34
2023-02-13T08:32:44.915Z,103747.13
2023-02-13T08:35:19.619Z,103753.09
2023-02-13T08:37:47.620Z,103768.16
2023-02-13T08:40:14.784Z,103765.31
2023-02-13T08:42:41.660Z,103761.69
2023-02-13T08:45:10.562Z,103724.22
2023-02-13T08:47:40.543Z,103618.69
2023-02-13T08:50:08.068Z,103771.00
2023-02-13T08:52:34.868Z,103739.69
2023-02-13T08:55:03.492Z,103748.34
2023-02-13T08:57:31.237Z,103763.38
2023-02-13T09:00:00.005Z,103751.59
2023-02-13T09:02:26.744Z,103765.59
2023-02-13T09:04:55.896Z,103765.41
2023-02-13T09:07:25.556Z,103767.03
2023-02-13T09:09:52.373Z,103736.75
2023-02-13T09:12:19.011Z,103756.00
2023-02-13T09:14:48.090Z,103771.88
2023-02-13T09:17:18.428Z,103767.09
2023-02-13T09:19:46.671Z,103688.09
2023-02-13T09:22:13.314Z,103753.97
2023-02-13T09:24:44.824Z,103762.38
2023-02-13T09:27:11.445Z,103769.44
2023-02-13T09:29:38.075Z,103750.44
2023-02-13T09:32:06.263Z,103765.44
2023-02-13T09:34:35.230Z,103733.78
2023-02-13T09:37:01.807Z,103760.63
2023-02-13T09:39:28.370Z,103742.69
2023-02-13T09:41:55.972Z,103762.97
2023-02-13T09:44:43.542Z,103752.84
2023-02-13T09:47:22.097Z,103759.47
2023-02-13T09:50:16.583Z,103752.63
2023-02-13T09:52:46.131Z,103759.47
2023-02-13T09:55:17.614Z,103763.84
2023-02-13T09:57:56.644Z,103763.41
2023-02-13T10:00:32.815Z,103756.84
2023-02-13T10:02:59.360Z,103763.41
2023-02-13T10:05:38.140Z,103765.16
2023-02-13T10:08:10.618Z,103759.31
2023-02-13T10:11:21.939Z,103756.91
2023-02-13T10:14:12.293Z,103709.84
2023-02-13T10:16:45.112Z,103749.50
2023-02-13T10:20:03.402Z,103759.78
2023-02-13T10:22:33.956Z,103759.16
2023-02-13T10:25:13.163Z,103744.88
2023-02-13T10:27:47.223Z,103747.97
2023-02-13T10:30:52.166Z,103750.84
2023-02-13T10:33:26.798Z,103742.28
2023-02-13T10:36:01.103Z,103750.41
2023-02-13T10:38:31.767Z,103746.75
2023-02-13T10:41:04.660Z,103746.44
2023-02-13T10:43:46.927Z,103717.03
2023-02-13T10:46:22.620Z,103744.00
2023-02-13T10:48:52.163Z,103747.03
2023-02-13T10:51:35.441Z,103740.06
2023-02-13T10:54:30.172Z,103739.56
2023-02-13T10:57:34.668Z,103738.72
2023-02-13T11:00:31.404Z,103737.03
2023-02-13T11:02:59.804Z,103739.00
2023-02-13T11:05:37.905Z,103708.34
2023-02-13T11:08:30.078Z,103715.69
2023-02-13T11:10:56.594Z,103719.91
2023-02-13T11:13:26.229Z,103717.16
2023-02-13T11:16:03.007Z,103718.00
2023-02-13T11:18:34.320Z,103706.75
2023-02-13T11:21:16.632Z,103706.16
2023-02-13T11:23:50.271Z,103673.06
2023-02-13T11:26:32.907Z,103649.59
2023-02-13T11:29:25.385Z,103705.81
2023-02-13T11:32:05.597Z,103701.25
2023-02-13T11:34:34.567Z,103700.28
2023-02-13T11:37:15.873Z,103697.34
2023-02-13T11:39:44.616Z,103677.78
2023-02-13T11:42:15.440Z,103690.25
2023-02-13T11:44:48.457Z,103625.84
2023-02-13T11:47:16.235Z,103681.47
2023-02-13T11:49:47.548Z,103683.72
2023-02-13T11:52:32.616Z,103690.63
2023-02-13T11:55:05.059Z,103695.13
2023-02-13T11:57:35.286Z,103696.09
2023-02-13T12:00:29.894Z,103660.53
2023-02-13T12:02:56.729Z,103701.47
2023-02-13T12:05:26.710Z,103680.03
2023-02-13T12:07:57.657Z,103680.75
2023-02-13T12:10:29.101Z,103663.50
2023-02-13T12:12:59.313Z,103669.16
2023-02-13T12:15:38.245Z,103640.28
2023-02-13T12:18:10.941Z,103670.13
2023-02-13T12:20:53.764Z,103638.63
2023-02-13T12:24:00.549Z,103664.09
2023-02-13T12:26:39.364Z,103661.56
2023-02-13T12:29:36.171Z,103657.31
2023-02-13T12:32:21.394Z,103654.66
2023-02-13T12:34:53.904Z,103650.50
2023-02-13T12:37:46.712Z,103579.84
2023-02-13T12:40:27.300Z,103647.47
2023-02-13T12:43:12.352Z,103540.59
2023-02-13T12:46:04.872Z,103618.63
2023-02-13T12:49:18.538Z,103634.34
2023-02-13T12:52:09.576Z,103639.13
2023-02-13T12:55:12.944Z,103640.44
2023-02-13T12:57:57.129Z,103642.22
2023-02-13T13:00:50.810Z,103634.09
2023-02-13T13:03:20.184Z,103636.66
2023-02-13T13:05:50.725Z,103638.19
2023-02-13T13:08:29.899Z,103633.97
2023-02-13T13:11:02.603Z,103622.63
2023-02-13T13:13:48.491Z,103617.22
2023-02-13T13:16:27.021Z,103615.94
2023-02-13T13:19:00.786Z,103606.63
2023-02-13T13:22:12.930Z,103578.44
2023-02-13T13:24:55.054Z,103599.66
2023-02-13T13:27:49.985Z,103577.25
2023-02-13T13:30:22.747Z,103591.78
2023-02-13T13:32:55.591Z,103593.97
2023-02-13T13:35:24.970Z,103570.97
2023-02-13T13:38:14.485Z,103563.03
2023-02-13T13:40:53.668Z,103566.69
2023-02-13T13:43:59.766Z,103585.94
2023-02-13T13:47:05.811Z,103585.50
2023-02-13T13:49:55.658Z,103576.47
2023-02-13T13:52:22.593Z,103579.53
2023-02-13T13:54:52.020Z,103574.72
2023-02-13T13:57:20.559Z,103559.22
2023-02-13T13:59:55.544Z,103569.44
2023-02-13T14:02:22.124Z,103566.34
2023-02-13T14:05:06.428Z,103563.66
2023-02-13T14:07:38.571Z,103460.06
2023-02-13T14:10:06.579Z,103555.09
2023-02-13T14:12:33.245Z,103575.69
2023-02-13T14:15:00.221Z,103526.84
2023-02-13T14:17:45.321Z,103572.97
2023-02-13T14:20:37.750Z,103559.28
2023-02-13T14:23:23.965Z,103556.44
2023-02-13T14:26:09.982Z,103486.31
2023-02-13T14:28:37.098Z,103530.63
2023-02-13T14:31:22.416Z,103563.03
2023-02-13T14:34:17.000Z,103564.09
2023-02-13T14:37:07.084Z,103452.00
2023-02-13T14:39:37.657Z,103554.16
2023-02-13T14:42:30.047Z,103557.78
2023-02-13T14:44:59.672Z,103550.63
2023-02-13T14:47:36.441Z,103551.13
2023-02-13T14:50:14.436Z,103505.94
2023-02-13T14:52:47.371Z,103531.56
2023-02-13T14:55:35.036Z,103548.19
2023-02-13T14:58:12.742Z,103540.25
2023-02-13T15:00:51.446Z,103552.59
2023-02-13T15:03:38.709Z,103529.50
2023-02-13T15:06:16.649Z,103483.94
2023-02-13T15:08:49.445Z,103535.09
2023-02-13T15:11:36.768Z,103524.63
2023-02-13T15:14:35.763Z,103537.34
2023-02-13T15:17:19.622Z,103541.16
2023-02-13T15:19:49.108Z,103536.88
2023-02-13T15:22:25.755Z,103525.03
2023-02-13T15:24:52.528Z,103523.00
2023-02-13T15:27:39.294Z,103524.44
2023-02-13T15:30:15.224Z,103528.28
2023-02-13T15:32:54.094Z,103509.72
2023-02-13T15:35:33.044Z,103466.88
2023-02-13T15:38:02.863Z,103492.00
2023-02-13T15:40:39.712Z,103522.75
2023-02-13T15:43:23.328Z,103514.00
2023-02-13T15:45:49.983Z,103499.25
2023-02-13T15:48:17.736Z,103509.81
2023-02-13T15:50:45.275Z,103508.47
2023-02-13T15:53:16.249Z,103509.44
2023-02-13T15:55:55.091Z,103518.81
2023-02-13T15:58:33.269Z,103514.53
2023-02-13T16:01:03.807Z,103518.44
2023-02-13T16:03:34.594Z,103486.78
2023-02-13T16:06:01.783Z,103485.38
2023-02-13T16:08:33.680Z,103512.84
2023-02-13T16:11:17.062Z,103511.50
2023-02-13T16:14:16.509Z,103512.97
2023-02-13T16:16:43.476Z,103509.63
2023-02-13T16:19:24.136Z,103504.56
2023-02-13T16:21:55.973Z,103508.53
2023-02-13T16:24:24.533Z,103514.47
2023-02-13T16:26:51.710Z,103514.75
2023-02-13T16:29:22.167Z,103506.91
2023-02-13T16:31:50.416Z,103444.56
2023-02-13T16:34:31.571Z,103507.84
2023-02-13T16:36:58.203Z,103500.34
2023-02-13T16:39:35.563Z,103516.88
2023-02-13T16:42:14.162Z,103513.69
2023-02-13T16:44:42.987Z,103518.84
2023-02-13T16:47:28.637Z,103510.19
2023-02-13T16:49:57.293Z,103509.78
2023-02-13T16:52:26.773Z,103513.94
2023-02-13T16:54:57.006Z,103520.72
2023-02-13T16:57:30.845Z,103520.28
2023-02-13T17:00:04.002Z,103499.56
2023-02-13T17:02:38.778Z,103447.81
2023-02-13T17:05:25.895Z,103513.41
2023-02-13T17:07:56.922Z,103496.28
2023-02-13T17:10:33.948Z,103513.44
2023-02-13T17:13:09.324Z,103519.16
2023-02-13T17:15:35.921Z,103522.25
2023-02-13T17:18:02.608Z,103522.59
2023-02-13T17:20:34.026Z,103518.41
2023-02-13T17:23:04.129Z,103526.09
2023-02-13T17:25:38.120Z,103517.78
2023-02-13T17:28:18.688Z,103525.00
2023-02-13T17:30:46.319Z,103530.84
2023-02-13T17:33:23.601Z,103526.56
2023-02-13T17:35:50.839Z,103522.13
2023-02-13T17:38:17.557Z,103522.13
2023-02-13T17:40:45.494Z,103527.41
2023-02-13T17:43:13.849Z,103530.47
2023-02-13T17:45:40.882Z,103509.63
2023-02-13T17:48:07.629Z,103504.50
2023-02-13T17:50:34.891Z,103534.00
2023-02-13T17:53:18.422Z,103531.53
2023-02-13T17:55:45.013Z,103540.16
2023-02-13T17:58:11.532Z,103528.63
2023-02-13T18:00:38.237Z,103489.22
2023-02-13T18:03:04.868Z,103535.50
2023-02-13T18:05:33.212Z,103527.63
2023-02-13T18:08:03.816Z,103536.13
2023-02-13T18:10:33.419Z,103532.66
2023-02-13T18:13:06.096Z,103489.34
2023-02-13T18:15:42.629Z,103537.91
2023-02-13T18:18:12.050Z,103533.78
2023-02-13T18:20:41.576Z,103517.41
2023-02-13T18:23:11.409Z,103524.75
2023-02-13T18:25:42.830Z,103532.97
2023-02-13T18:28:09.477Z,103534.84
2023-02-13T18:30:36.015Z,103534.69
2023-02-13T18:33:05.699Z,103523.06
2023-02-13T18:35:33.401Z,103516.31
2023-02-13T18:37:59.998Z,103547.69
2023-02-13T18:40:26.898Z,103543.50
2023-02-13T18:42:53.735Z,103529.66
2023-02-13T18:45:20.425Z,103539.84
2023-02-13T18:47:46.989Z,103540.84
2023-02-13T18:50:15.747Z,103535.88
2023-02-13T18:52:42.330Z,103534.34
2023-02-13T18:55:11.193Z,103531.75
2023-02-13T18:57:37.830Z,103400.44
2023-02-13T19:00:05.559Z,103520.75
2023-02-13T19:02:33.534Z,103531.63
2023-02-13T19:05:02.757Z,103537.06
2023-02-13T19:07:31.732Z,103505.19
2023-02-13T19:09:58.361Z,103530.41
2023-02-13T19:12:27.433Z,103526.13
2023-02-13T19:14:54.032Z,103522.78
2023-02-13T19:17:20.630Z,103505.31
2023-02-13T19:19:50.428Z,103510.94
2023-02-13T19:22:17.401Z,103503.81
2023-02-13T19:24:44.143Z,103513.03
2023-02-13T19:27:11.396Z,103521.13
2023-02-13T19:29:38.012Z,103517.66
2023-02-13T19:32:07.643Z,103502.00
2023-02-13T19:34:34.679Z,103499.28
2023-02-13T19:37:04.285Z,103523.66
2023-02-13T19:39:30.864Z,103519.50
2023-02-13T19:41:57.466Z,103516.91
2023-02-13T19:44:26.543Z,103518.94
2023-02-13T19:46:53.359Z,103511.16
2023-02-13T19:49:22.334Z,103465.38
2023-02-13T19:51:48.985Z,103498.41
2023-02-13T19:54:15.619Z,103533.09
2023-02-13T19:56:42.343Z,103510.19
2023-02-13T19:59:13.345Z,103497.19
2023-02-13T20:01:43.827Z,103508.91
2023-02-13T20:04:16.157Z,103533.91
2023-02-13T20:06:42.830Z,103519.69
2023-02-13T20:09:12.853Z,103531.38
2023-02-13T20:11:41.467Z,103533.31
2023-02-13T20:14:11.692Z,103535.28
2023-02-13T20:16:38.559Z,103521.47
2023-02-13T20:19:09.556Z,103525.88
2023-02-13T20:21:36.872Z,103514.75
2023-02-13T20:24:07.874Z,103526.41
2023-02-13T20:26:37.157Z,103537.16
2023-02-13T20:29:03.819Z,103529.06
2023-02-13T20:31:30.749Z,103533.78
2023-02-13T20:33:58.288Z,103512.38
2023-02-13T20:36:27.549Z,103536.63
2023-02-13T20:38:57.394Z,103519.91
2023-02-13T20:41:28.795Z,103531.47
2023-02-13T20:44:03.824Z,103505.91
2023-02-13T20:46:32.219Z,103407.00
2023-02-13T20:48:58.824Z,103526.53
2023-02-13T20:51:25.674Z,103511.72
2023-02-13T20:53:52.308Z,103529.72
2023-02-13T20:56:21.832Z,103528.16
2023-02-13T20:58:50.632Z,103533.47
2023-02-13T21:01:28.149Z,103533.56
2023-02-13T21:03:56.436Z,103529.28
2023-02-13T21:06:31.923Z,103511.41
2023-02-13T21:08:58.898Z,103508.94
2023-02-13T21:11:31.299Z,103503.66
2023-02-13T21:13:58.320Z,103526.06
2023-02-13T21:16:29.597Z,103496.72
2023-02-13T21:18:58.863Z,103528.75
2023-02-13T21:21:29.173Z,103537.88
2023-02-13T21:23:57.809Z,103539.75
2023-02-13T21:26:25.662Z,103514.91
2023-02-13T21:28:52.797Z,103536.38
2023-02-13T21:31:23.857Z,103525.91
2023-02-13T21:33:52.985Z,103545.47
2023-02-13T21:36:21.788Z,103550.13
2023-02-13T21:38:50.818Z,103543.00
2023-02-13T21:41:18.743Z,103543.25
2023-02-13T21:43:48.352Z,103546.81
2023-02-13T21:46:19.787Z,103539.72
2023-02-13T21:48:47.747Z,103541.66
2023-02-13T21:51:16.817Z,103551.56
2023-02-13T21:53:48.327Z,103551.66
2023-02-13T21:56:18.362Z,103517.19
2023-02-13T21:58:45.750Z,103540.25
2023-02-13T22:01:30.653Z,103547.59
2023-02-13T22:04:01.158Z,103523.66
2023-02-13T22:06:30.244Z,103529.16
2023-02-13T22:09:11.330Z,103540.72
2023-02-13T22:11:38.468Z,103517.84
2023-02-13T22:14:07.880Z,103516.19
2023-02-13T22:16:37.611Z,103535.72
2023-02-13T22:19:09.469Z,103542.88
2023-02-13T22:21:36.689Z,103534.94
2023-02-13T22:24:03.496Z,103527.69
2023-02-13T22:26:38.174Z,103524.41
2023-02-13T22:29:06.736Z,103534.31
2023-02-13T22:31:34.182Z,103533.47
2023-02-13T22:34:06.984Z,103515.78
2023-02-13T22:36:35.260Z,103527.50
2023-02-13T22:39:01.892Z,103307.06
2023-02-13T22:41:30.776Z,103530.22
2023-02-13T22:43:57.591Z,103524.84
2023-02-13T22:46:29.998Z,103523.09
2023-02-13T22:48:57.362Z,103486.00
2023-02-13T22:51:27.654Z,103519.69
2023-02-13T22:53:55.838Z,103523.38
2023-02-13T22:56:23.375Z,103516.31
2023-02-13T22:58:50.139Z,103513.59
2023-02-13T23:01:23.128Z,103515.47
2023-02-13T23:03:50.823Z,103523.63
2023-02-13T23:06:17.987Z,103520.97
2023-02-13T23:08:45.461Z,103522.00
2023-02-13T23:11:35.303Z,103522.97
2023-02-13T23:14:04.640Z,103529.38
2023-02-13T23:16:50.347Z,103525.81
2023-02-13T23:19:17.006Z,103522.34
2023-02-13T23:21:45.822Z,103523.31
2023-02-13T23:24:12.438Z,103490.47
2023-02-13T23:26:39.168Z,103512.59
2023-02-13T23:29:08.290Z,103495.91
2023-02-13T23:31:34.973Z,103512.00
2023-02-13T23:34:01.762Z,103522.81
2023-02-13T23:36:28.694Z,103505.97
2023-02-13T23:38:55.301Z,103516.56
2023-02-13T23:41:21.901Z,103517.63
2023-02-13T23:43:48.463Z,103483.97
2023-02-13T23:46:15.036Z,103509.72
2023-02-13T23:48:41.584Z,103494.88
2023-02-13T23:51:08.119Z,103519.78
2023-02-13T23:53:38.133Z,103490.44
2023-02-13T23:56:05.376Z,103496.69
2023-02-13T23:58:31.966Z,103519.06
